sensor_id;sensor_type;location;lat;lon;timestamp;temperature;humidity
9403;DHT22;4741;49.834;10.740;2023-05-07T00:01:13;13.60;99.90
9403;DHT22;4741;49.834;10.740;2023-05-07T00:03:40;11.60;99.90
9403;DHT22;4741;49.834;10.740;2023-05-07T00:06:08;11.40;99.90
9403;DHT22;4741;49.834;10.740;2023-05-07T00:08:35;11.30;99.90
9403;DHT22;4741;49.834;10.740;2023-05-07T00:11:02;13.70;99.90
9403;DHT22;4741;49.834;10.740;2023-05-07T00:13:28;11.60;99.90
9403;DHT22;4741;49.834;10.740;2023-05-07T00:16:02;11.30;99.90
9403;DHT22;4741;49.834;10.740;2023-05-07T00:18:29;12.00;99.90
9403;DHT22;4741;49.834;10.740;2023-05-07T00:20:56;13.60;99.90
9403;DHT22;4741;49.834;10.740;2023-05-07T00:23:22;11.60;99.90
9403;DHT22;4741;49.834;10.740;2023-05-07T00:25:49;12.30;99.90
9403;DHT22;4741;49.834;10.740;2023-05-07T00:28:16;11.20;99.90
9403;DHT22;4741;49.834;10.740;2023-05-07T00:30:43;11.60;99.90
9403;DHT22;4741;49.834;10.740;2023-05-07T00:33:09;12.80;99.90
9403;DHT22;4741;49.834;10.740;2023-05-07T00:35:36;13.40;99.90
9403;DHT22;4741;49.834;10.740;2023-05-07T00:38:03;13.50;99.90
9403;DHT22;4741;49.834;10.740;2023-05-07T00:40:30;13.30;99.90
9403;DHT22;4741;49.834;10.740;2023-05-07T00:42:56;13.90;99.90
9403;DHT22;4741;49.834;10.740;2023-05-07T00:45:28;12.90;99.90
9403;DHT22;4741;49.834;10.740;2023-05-07T00:47:55;11.70;99.90
9403;DHT22;4741;49.834;10.740;2023-05-07T00:50:22;12.80;99.90
9403;DHT22;4741;49.834;10.740;2023-05-07T00:52:49;13.10;99.90
9403;DHT22;4741;49.834;10.740;2023-05-07T00:55:16;12.90;99.90
9403;DHT22;4741;49.834;10.740;2023-05-07T00:57:43;12.90;99.90
9403;DHT22;4741;49.834;10.740;2023-05-07T01:00:10;13.10;99.90
9403;DHT22;4741;49.834;10.740;2023-05-07T01:02:39;11.10;99.90
9403;DHT22;4741;49.834;10.740;2023-05-07T01:05:16;10.50;99.90
9403;DHT22;4741;49.834;10.740;2023-05-07T01:07:44;11.00;99.90
9403;DHT22;4741;49.834;10.740;2023-05-07T01:10:11;10.30;99.90
9403;DHT22;4741;49.834;10.740;2023-05-07T01:12:38;12.10;99.90
9403;DHT22;4741;49.834;10.740;2023-05-07T01:15:07;12.20;99.90
9403;DHT22;4741;49.834;10.740;2023-05-07T01:17:35;11.30;99.90
9403;DHT22;4741;49.834;10.740;2023-05-07T01:20:02;12.70;99.90
9403;DHT22;4741;49.834;10.740;2023-05-07T01:22:34;11.30;99.90
9403;DHT22;4741;49.834;10.740;2023-05-07T01:25:03;13.00;99.90
9403;DHT22;4741;49.834;10.740;2023-05-07T01:27:30;11.40;99.90
9403;DHT22;4741;49.834;10.740;2023-05-07T01:29:57;13.10;99.90
9403;DHT22;4741;49.834;10.740;2023-05-07T01:35:07;11.10;99.90
9403;DHT22;4741;49.834;10.740;2023-05-07T01:37:34;11.00;99.90
9403;DHT22;4741;49.834;10.740;2023-05-07T01:40:01;9.90;99.90
9403;DHT22;4741;49.834;10.740;2023-05-07T01:42:28;12.60;99.90
9403;DHT22;4741;49.834;10.740;2023-05-07T01:44:55;10.10;99.90
9403;DHT22;4741;49.834;10.740;2023-05-07T01:47:24;12.70;99.90
9403;DHT22;4741;49.834;10.740;2023-05-07T01:49:52;12.40;99.90
9403;DHT22;4741;49.834;10.740;2023-05-07T01:52:18;12.40;99.90
9403;DHT22;4741;49.834;10.740;2023-05-07T01:54:45;12.50;99.90
9403;DHT22;4741;49.834;10.740;2023-05-07T01:57:12;12.50;99.90
9403;DHT22;4741;49.834;10.740;2023-05-07T01:59:38;12.20;99.90
9403;DHT22;4741;49.834;10.740;2023-05-07T02:02:05;11.70;99.90
9403;DHT22;4741;49.834;10.740;2023-05-07T02:04:32;12.20;99.90
9403;DHT22;4741;49.834;10.740;2023-05-07T02:06:59;12.60;99.90
9403;DHT22;4741;49.834;10.740;2023-05-07T02:09:25;9.70;99.90
9403;DHT22;4741;49.834;10.740;2023-05-07T02:11:52;10.90;99.90
9403;DHT22;4741;49.834;10.740;2023-05-07T02:14:19;12.10;99.90
9403;DHT22;4741;49.834;10.740;2023-05-07T02:16:47;11.30;99.90
9403;DHT22;4741;49.834;10.740;2023-05-07T02:19:13;10.30;99.90
9403;DHT22;4741;49.834;10.740;2023-05-07T02:21:40;12.40;99.90
9403;DHT22;4741;49.834;10.740;2023-05-07T02:24:07;12.10;99.90
9403;DHT22;4741;49.834;10.740;2023-05-07T02:26:34;11.90;99.90
9403;DHT22;4741;49.834;10.740;2023-05-07T02:29:00;12.00;99.90
9403;DHT22;4741;49.834;10.740;2023-05-07T02:31:27;12.80;99.90
9403;DHT22;4741;49.834;10.740;2023-05-07T02:33:54;12.20;99.90
9403;DHT22;4741;49.834;10.740;2023-05-07T02:36:21;12.60;99.90
9403;DHT22;4741;49.834;10.740;2023-05-07T02:38:47;12.20;99.90
9403;DHT22;4741;49.834;10.740;2023-05-07T02:41:14;10.70;99.90
9403;DHT22;4741;49.834;10.740;2023-05-07T02:43:41;11.90;99.90
9403;DHT22;4741;49.834;10.740;2023-05-07T02:46:08;13.00;99.90
9403;DHT22;4741;49.834;10.740;2023-05-07T02:48:35;9.10;99.90
9403;DHT22;4741;49.834;10.740;2023-05-07T02:51:02;9.10;99.90
9403;DHT22;4741;49.834;10.740;2023-05-07T02:53:28;9.70;99.90
9403;DHT22;4741;49.834;10.740;2023-05-07T02:55:56;11.00;99.90
9403;DHT22;4741;49.834;10.740;2023-05-07T02:58:23;9.00;99.90
9403;DHT22;4741;49.834;10.740;2023-05-07T03:00:50;11.50;99.90
9403;DHT22;4741;49.834;10.740;2023-05-07T03:03:16;10.30;99.90
9403;DHT22;4741;49.834;10.740;2023-05-07T03:05:43;11.30;99.90
9403;DHT22;4741;49.834;10.740;2023-05-07T03:08:10;11.50;99.90
9403;DHT22;4741;49.834;10.740;2023-05-07T03:10:37;11.30;99.90
9403;DHT22;4741;49.834;10.740;2023-05-07T03:13:03;11.40;99.90
9403;DHT22;4741;49.834;10.740;2023-05-07T03:15:30;9.10;99.90
9403;DHT22;4741;49.834;10.740;2023-05-07T03:17:57;9.20;99.90
9403;DHT22;4741;49.834;10.740;2023-05-07T03:20:26;9.20;99.90
9403;DHT22;4741;49.834;10.740;2023-05-07T03:22:53;10.70;99.90
9403;DHT22;4741;49.834;10.740;2023-05-07T03:25:19;11.30;99.90
9403;DHT22;4741;49.834;10.740;2023-05-07T03:27:46;11.30;99.90
9403;DHT22;4741;49.834;10.740;2023-05-07T03:30:13;9.20;99.90
9403;DHT22;4741;49.834;10.740;2023-05-07T03:32:39;11.30;99.90
9403;DHT22;4741;49.834;10.740;2023-05-07T03:35:06;9.30;99.90
9403;DHT22;4741;49.834;10.740;2023-05-07T03:37:33;11.50;99.90
9403;DHT22;4741;49.834;10.740;2023-05-07T03:40:00;11.80;99.90
9403;DHT22;4741;49.834;10.740;2023-05-07T03:42:27;11.40;99.90
9403;DHT22;4741;49.834;10.740;2023-05-07T03:44:54;11.00;99.90
9403;DHT22;4741;49.834;10.740;2023-05-07T03:47:21;10.50;99.90
9403;DHT22;4741;49.834;10.740;2023-05-07T03:49:49;11.20;99.90
9403;DHT22;4741;49.834;10.740;2023-05-07T03:52:16;8.70;99.90
9403;DHT22;4741;49.834;10.740;2023-05-07T03:54:48;11.10;99.90
9403;DHT22;4741;49.834;10.740;2023-05-07T03:57:15;9.20;99.90
9403;DHT22;4741;49.834;10.740;2023-05-07T03:59:42;11.10;99.90
9403;DHT22;4741;49.834;10.740;2023-05-07T04:02:08;8.60;99.90
9403;DHT22;4741;49.834;10.740;2023-05-07T04:04:35;11.60;99.90
9403;DHT22;4741;49.834;10.740;2023-05-07T04:07:02;11.30;99.90
9403;DHT22;4741;49.834;10.740;2023-05-07T04:09:29;11.60;99.90
9403;DHT22;4741;49.834;10.740;2023-05-07T04:11:56;10.80;99.90
9403;DHT22;4741;49.834;10.740;2023-05-07T04:14:22;11.10;99.90
9403;DHT22;4741;49.834;10.740;2023-05-07T04:16:49;11.20;99.90
9403;DHT22;4741;49.834;10.740;2023-05-07T04:19:16;10.30;99.90
9403;DHT22;4741;49.834;10.740;2023-05-07T04:21:43;11.00;99.90
9403;DHT22;4741;49.834;10.740;2023-05-07T04:24:09;10.20;99.90
9403;DHT22;4741;49.834;10.740;2023-05-07T04:26:36;8.90;99.90
9403;DHT22;4741;49.834;10.740;2023-05-07T04:29:03;11.10;99.90
9403;DHT22;4741;49.834;10.740;2023-05-07T04:31:30;11.30;99.90
9403;DHT22;4741;49.834;10.740;2023-05-07T04:33:57;10.70;99.90
9403;DHT22;4741;49.834;10.740;2023-05-07T04:36:23;8.90;99.90
9403;DHT22;4741;49.834;10.740;2023-05-07T04:38:54;9.00;99.90
9403;DHT22;4741;49.834;10.740;2023-05-07T04:41:20;11.10;99.90
9403;DHT22;4741;49.834;10.740;2023-05-07T04:43:47;9.00;99.90
9403;DHT22;4741;49.834;10.740;2023-05-07T04:46:14;10.90;99.90
9403;DHT22;4741;49.834;10.740;2023-05-07T04:48:41;11.00;99.90
9403;DHT22;4741;49.834;10.740;2023-05-07T04:51:07;10.70;99.90
9403;DHT22;4741;49.834;10.740;2023-05-07T04:53:34;9.20;99.90
9403;DHT22;4741;49.834;10.740;2023-05-07T04:56:01;9.20;99.90
9403;DHT22;4741;49.834;10.740;2023-05-07T04:58:27;9.20;99.90
9403;DHT22;4741;49.834;10.740;2023-05-07T05:00:58;12.20;99.90
9403;DHT22;4741;49.834;10.740;2023-05-07T05:03:25;12.00;99.90
9403;DHT22;4741;49.834;10.740;2023-05-07T05:05:52;9.30;99.90
9403;DHT22;4741;49.834;10.740;2023-05-07T05:08:19;12.00;99.90
9403;DHT22;4741;49.834;10.740;2023-05-07T05:10:46;12.20;99.90
9403;DHT22;4741;49.834;10.740;2023-05-07T05:13:15;12.00;99.90
9403;DHT22;4741;49.834;10.740;2023-05-07T05:15:41;12.20;99.90
9403;DHT22;4741;49.834;10.740;2023-05-07T05:18:08;10.60;99.90
9403;DHT22;4741;49.834;10.740;2023-05-07T05:20:35;12.20;99.90
9403;DHT22;4741;49.834;10.740;2023-05-07T05:23:02;12.10;99.90
9403;DHT22;4741;49.834;10.740;2023-05-07T05:25:29;12.50;99.90
9403;DHT22;4741;49.834;10.740;2023-05-07T05:27:56;10.50;99.90
9403;DHT22;4741;49.834;10.740;2023-05-07T05:30:23;13.00;99.90
9403;DHT22;4741;49.834;10.740;2023-05-07T05:32:49;11.80;99.90
9403;DHT22;4741;49.834;10.740;2023-05-07T05:35:16;13.30;99.90
9403;DHT22;4741;49.834;10.740;2023-05-07T05:45:04;12.10;99.90
9403;DHT22;4741;49.834;10.740;2023-05-07T05:47:31;12.40;99.90
9403;DHT22;4741;49.834;10.740;2023-05-07T05:52:25;12.80;99.90
9403;DHT22;4741;49.834;10.740;2023-05-07T05:54:53;12.90;99.90
9403;DHT22;4741;49.834;10.740;2023-05-07T05:59:47;13.00;99.90
9403;DHT22;4741;49.834;10.740;2023-05-07T06:04:41;13.30;99.90
9403;DHT22;4741;49.834;10.740;2023-05-07T06:07:09;13.00;99.90
9403;DHT22;4741;49.834;10.740;2023-05-07T06:09:36;13.40;99.90
9403;DHT22;4741;49.834;10.740;2023-05-07T06:16:57;13.80;99.90
9403;DHT22;4741;49.834;10.740;2023-05-07T06:19:24;13.80;99.90
9403;DHT22;4741;49.834;10.740;2023-05-07T06:21:52;15.30;99.90
9403;DHT22;4741;49.834;10.740;2023-05-07T06:24:19;14.00;99.90
9403;DHT22;4741;49.834;10.740;2023-05-07T06:26:46;15.00;99.90
9403;DHT22;4741;49.834;10.740;2023-05-07T06:29:13;16.20;99.90
9403;DHT22;4741;49.834;10.740;2023-05-07T06:34:07;14.80;99.90
9403;DHT22;4741;49.834;10.740;2023-05-07T06:36:34;16.70;99.90
9403;DHT22;4741;49.834;10.740;2023-05-07T06:39:01;15.50;99.90
9403;DHT22;4741;49.834;10.740;2023-05-07T06:41:28;16.70;99.90
9403;DHT22;4741;49.834;10.740;2023-05-07T06:43:55;16.80;99.90
9403;DHT22;4741;49.834;10.740;2023-05-07T06:46:22;17.50;99.90
9403;DHT22;4741;49.834;10.740;2023-05-07T06:48:49;15.40;99.90
9403;DHT22;4741;49.834;10.740;2023-05-07T06:51:16;15.50;99.90
9403;DHT22;4741;49.834;10.740;2023-05-07T06:53:43;16.20;99.90
9403;DHT22;4741;49.834;10.740;2023-05-07T06:56:10;17.70;99.90
9403;DHT22;4741;49.834;10.740;2023-05-07T06:58:37;16.80;99.90
9403;DHT22;4741;49.834;10.740;2023-05-07T07:01:06;15.90;99.90
9403;DHT22;4741;49.834;10.740;2023-05-07T07:03:32;15.30;99.90
9403;DHT22;4741;49.834;10.740;2023-05-07T07:05:59;16.10;99.90
9403;DHT22;4741;49.834;10.740;2023-05-07T07:08:30;16.90;99.90
9403;DHT22;4741;49.834;10.740;2023-05-07T07:11:01;17.80;99.90
9403;DHT22;4741;49.834;10.740;2023-05-07T07:13:28;16.60;99.90
9403;DHT22;4741;49.834;10.740;2023-05-07T07:15:55;17.30;99.90
9403;DHT22;4741;49.834;10.740;2023-05-07T07:18:24;17.00;99.90
9403;DHT22;4741;49.834;10.740;2023-05-07T07:20:51;16.40;99.90
9403;DHT22;4741;49.834;10.740;2023-05-07T07:23:20;16.30;99.90
9403;DHT22;4741;49.834;10.740;2023-05-07T07:25:48;17.90;99.90
9403;DHT22;4741;49.834;10.740;2023-05-07T07:28:14;18.10;99.90
9403;DHT22;4741;49.834;10.740;2023-05-07T07:30:42;17.60;99.90
9403;DHT22;4741;49.834;10.740;2023-05-07T07:33:09;18.50;99.90
9403;DHT22;4741;49.834;10.740;2023-05-07T07:35:35;17.20;99.90
9403;DHT22;4741;49.834;10.740;2023-05-07T07:38:02;16.70;99.90
9403;DHT22;4741;49.834;10.740;2023-05-07T07:40:29;17.60;99.90
9403;DHT22;4741;49.834;10.740;2023-05-07T07:42:56;18.40;99.90
9403;DHT22;4741;49.834;10.740;2023-05-07T07:45:23;17.70;99.90
9403;DHT22;4741;49.834;10.740;2023-05-07T07:47:53;16.90;99.90
9403;DHT22;4741;49.834;10.740;2023-05-07T07:50:25;16.80;99.90
9403;DHT22;4741;49.834;10.740;2023-05-07T07:53:12;18.20;99.90
9403;DHT22;4741;49.834;10.740;2023-05-07T07:55:39;18.20;99.90
9403;DHT22;4741;49.834;10.740;2023-05-07T07:58:07;17.90;99.90
9403;DHT22;4741;49.834;10.740;2023-05-07T08:00:33;17.10;99.90
9403;DHT22;4741;49.834;10.740;2023-05-07T08:03:00;17.50;99.90
9403;DHT22;4741;49.834;10.740;2023-05-07T08:05:27;18.40;99.90
9403;DHT22;4741;49.834;10.740;2023-05-07T08:07:54;18.00;99.90
9403;DHT22;4741;49.834;10.740;2023-05-07T08:13:22;18.60;99.90
9403;DHT22;4741;49.834;10.740;2023-05-07T08:15:57;18.50;99.90
9403;DHT22;4741;49.834;10.740;2023-05-07T08:20:51;18.70;99.90
9403;DHT22;4741;49.834;10.740;2023-05-07T08:23:21;19.60;99.90
9403;DHT22;4741;49.834;10.740;2023-05-07T08:25:48;19.10;99.90
9403;DHT22;4741;49.834;10.740;2023-05-07T08:28:15;19.30;99.90
9403;DHT22;4741;49.834;10.740;2023-05-07T08:30:46;19.40;99.90
9403;DHT22;4741;49.834;10.740;2023-05-07T08:33:13;19.50;99.90
9403;DHT22;4741;49.834;10.740;2023-05-07T08:35:40;19.60;99.90
9403;DHT22;4741;49.834;10.740;2023-05-07T08:38:07;19.90;99.90
9403;DHT22;4741;49.834;10.740;2023-05-07T08:40:36;21.10;99.90
9403;DHT22;4741;49.834;10.740;2023-05-07T08:45:30;19.70;99.90
9403;DHT22;4741;49.834;10.740;2023-05-07T08:48:01;18.80;99.90
9403;DHT22;4741;49.834;10.740;2023-05-07T08:50:28;20.00;99.90
9403;DHT22;4741;49.834;10.740;2023-05-07T08:52:56;20.10;99.90
9403;DHT22;4741;49.834;10.740;2023-05-07T08:55:23;20.90;99.90
9403;DHT22;4741;49.834;10.740;2023-05-07T08:57:50;19.50;99.90
9403;DHT22;4741;49.834;10.740;2023-05-07T09:00:19;20.80;99.90
9403;DHT22;4741;49.834;10.740;2023-05-07T09:02:45;19.70;99.90
9403;DHT22;4741;49.834;10.740;2023-05-07T09:12:34;20.50;99.90
9403;DHT22;4741;49.834;10.740;2023-05-07T09:15:06;20.80;99.90
9403;DHT22;4741;49.834;10.740;2023-05-07T09:17:33;20.70;99.90
9403;DHT22;4741;49.834;10.740;2023-05-07T09:20:06;20.60;99.90
9403;DHT22;4741;49.834;10.740;2023-05-07T09:25:04;21.20;99.90
9403;DHT22;4741;49.834;10.740;2023-05-07T09:27:33;21.30;99.90
9403;DHT22;4741;49.834;10.740;2023-05-07T09:30:02;21.40;99.90
9403;DHT22;4741;49.834;10.740;2023-05-07T09:32:29;22.70;99.90
9403;DHT22;4741;49.834;10.740;2023-05-07T09:34:58;21.50;99.90
9403;DHT22;4741;49.834;10.740;2023-05-07T09:37:25;21.80;99.90
9403;DHT22;4741;49.834;10.740;2023-05-07T09:39:52;22.80;99.90
9403;DHT22;4741;49.834;10.740;2023-05-07T09:42:22;21.40;99.90
9403;DHT22;4741;49.834;10.740;2023-05-07T09:44:49;21.60;99.90
9403;DHT22;4741;49.834;10.740;2023-05-07T09:47:20;22.10;99.90
9403;DHT22;4741;49.834;10.740;2023-05-07T09:49:49;21.40;99.90
9403;DHT22;4741;49.834;10.740;2023-05-07T09:52:16;21.90;99.90
9403;DHT22;4741;49.834;10.740;2023-05-07T09:54:43;22.40;99.90
9403;DHT22;4741;49.834;10.740;2023-05-07T09:57:11;22.20;99.90
9403;DHT22;4741;49.834;10.740;2023-05-07T09:59:42;21.20;99.90
9403;DHT22;4741;49.834;10.740;2023-05-07T10:02:09;22.00;99.90
9403;DHT22;4741;49.834;10.740;2023-05-07T10:04:36;22.40;99.90
9403;DHT22;4741;49.834;10.740;2023-05-07T10:07:03;21.70;99.90
9403;DHT22;4741;49.834;10.740;2023-05-07T10:09:31;22.70;99.90
9403;DHT22;4741;49.834;10.740;2023-05-07T10:11:58;21.30;99.90
9403;DHT22;4741;49.834;10.740;2023-05-07T10:14:25;20.60;99.90
9403;DHT22;4741;49.834;10.740;2023-05-07T10:16:54;21.20;99.90
9403;DHT22;4741;49.834;10.740;2023-05-07T10:19:21;21.50;99.90
9403;DHT22;4741;49.834;10.740;2023-05-07T10:21:51;21.50;99.90
9403;DHT22;4741;49.834;10.740;2023-05-07T10:24:25;22.30;99.90
9403;DHT22;4741;49.834;10.740;2023-05-07T10:26:52;23.30;99.90
9403;DHT22;4741;49.834;10.740;2023-05-07T11:24:04;23.50;99.90
9403;DHT22;4741;49.834;10.740;2023-05-07T11:41:53;25.40;99.90
9403;DHT22;4741;49.834;10.740;2023-05-07T11:48:02;26.70;99.90
9403;DHT22;4741;49.834;10.740;2023-05-07T11:50:31;26.90;99.90
9403;DHT22;4741;49.834;10.740;2023-05-07T11:52:58;27.50;99.90
9403;DHT22;4741;49.834;10.740;2023-05-07T11:55:24;26.60;99.90
9403;DHT22;4741;49.834;10.740;2023-05-07T11:57:52;26.70;99.90
9403;DHT22;4741;49.834;10.740;2023-05-07T12:00:19;27.30;99.90
9403;DHT22;4741;49.834;10.740;2023-05-07T12:02:45;27.50;99.90
9403;DHT22;4741;49.834;10.740;2023-05-07T12:05:12;27.70;99.90
9403;DHT22;4741;49.834;10.740;2023-05-07T12:10:06;28.30;99.90
9403;DHT22;4741;49.834;10.740;2023-05-07T12:12:40;27.10;99.90
9403;DHT22;4741;49.834;10.740;2023-05-07T12:15:08;27.10;99.90
9403;DHT22;4741;49.834;10.740;2023-05-07T12:17:35;27.30;99.90
9403;DHT22;4741;49.834;10.740;2023-05-07T12:20:02;27.70;99.90
9403;DHT22;4741;49.834;10.740;2023-05-07T12:22:29;27.90;99.90
9403;DHT22;4741;49.834;10.740;2023-05-07T12:24:57;28.90;99.90
9403;DHT22;4741;49.834;10.740;2023-05-07T12:27:25;28.90;99.90
9403;DHT22;4741;49.834;10.740;2023-05-07T12:29:52;27.90;99.90
9403;DHT22;4741;49.834;10.740;2023-05-07T12:32:19;27.10;99.90
9403;DHT22;4741;49.834;10.740;2023-05-07T12:34:49;27.70;99.90
9403;DHT22;4741;49.834;10.740;2023-05-07T12:37:16;28.60;99.90
9403;DHT22;4741;49.834;10.740;2023-05-07T12:39:49;29.00;99.90
9403;DHT22;4741;49.834;10.740;2023-05-07T12:47:10;30.00;99.70
9403;DHT22;4741;49.834;10.740;2023-05-07T12:49:37;29.90;99.90
9403;DHT22;4741;49.834;10.740;2023-05-07T12:52:05;30.00;99.90
9403;DHT22;4741;49.834;10.740;2023-05-07T12:54:32;30.40;96.60
9403;DHT22;4741;49.834;10.740;2023-05-07T12:57:00;29.60;98.10
9403;DHT22;4741;49.834;10.740;2023-05-07T12:59:33;30.70;97.70
9403;DHT22;4741;49.834;10.740;2023-05-07T13:02:00;30.30;97.10
9403;DHT22;4741;49.834;10.740;2023-05-07T13:09:21;27.90;98.90
9403;DHT22;4741;49.834;10.740;2023-05-07T13:11:48;28.10;97.90
9403;DHT22;4741;49.834;10.740;2023-05-07T13:14:15;29.20;99.00
9403;DHT22;4741;49.834;10.740;2023-05-07T13:16:42;28.80;96.50
9403;DHT22;4741;49.834;10.740;2023-05-07T13:19:09;28.60;97.00
9403;DHT22;4741;49.834;10.740;2023-05-07T13:21:35;29.00;96.60
9403;DHT22;4741;49.834;10.740;2023-05-07T13:24:02;28.60;98.40
9403;DHT22;4741;49.834;10.740;2023-05-07T13:26:29;29.10;96.40
9403;DHT22;4741;49.834;10.740;2023-05-07T13:28:56;30.00;97.90
9403;DHT22;4741;49.834;10.740;2023-05-07T13:38:44;31.40;95.10
9403;DHT22;4741;49.834;10.740;2023-05-07T13:43:39;31.80;94.30
9403;DHT22;4741;49.834;10.740;2023-05-07T13:46:06;30.40;95.60
9403;DHT22;4741;49.834;10.740;2023-05-07T13:48:33;30.30;96.60
9403;DHT22;4741;49.834;10.740;2023-05-07T13:51:01;30.70;97.00
9403;DHT22;4741;49.834;10.740;2023-05-07T13:53:30;30.10;95.60
9403;DHT22;4741;49.834;10.740;2023-05-07T13:55:57;30.90;94.50
9403;DHT22;4741;49.834;10.740;2023-05-07T13:58:23;29.00;95.40
9403;DHT22;4741;49.834;10.740;2023-05-07T14:00:50;28.20;97.70
9403;DHT22;4741;49.834;10.740;2023-05-07T14:05:46;27.30;97.30
9403;DHT22;4741;49.834;10.740;2023-05-07T14:08:15;28.00;97.10
9403;DHT22;4741;49.834;10.740;2023-05-07T14:10:45;29.30;96.30
9403;DHT22;4741;49.834;10.740;2023-05-07T14:13:12;28.60;95.50
9403;DHT22;4741;49.834;10.740;2023-05-07T14:15:39;28.30;96.00
9403;DHT22;4741;49.834;10.740;2023-05-07T14:18:06;29.50;96.00
9403;DHT22;4741;49.834;10.740;2023-05-07T14:20:33;30.90;95.40
9403;DHT22;4741;49.834;10.740;2023-05-07T14:23:03;29.40;93.90
9403;DHT22;4741;49.834;10.740;2023-05-07T14:25:30;28.40;95.00
9403;DHT22;4741;49.834;10.740;2023-05-07T14:27:56;28.00;94.40
9403;DHT22;4741;49.834;10.740;2023-05-07T14:30:23;29.60;94.00
9403;DHT22;4741;49.834;10.740;2023-05-07T14:32:50;29.70;93.50
9403;DHT22;4741;49.834;10.740;2023-05-07T14:35:17;30.10;94.20
9403;DHT22;4741;49.834;10.740;2023-05-07T14:37:44;29.90;94.60
9403;DHT22;4741;49.834;10.740;2023-05-07T14:40:11;29.60;93.30
9403;DHT22;4741;49.834;10.740;2023-05-07T14:42:38;30.10;92.40
9403;DHT22;4741;49.834;10.740;2023-05-07T14:45:05;29.50;93.60
9403;DHT22;4741;49.834;10.740;2023-05-07T14:47:32;28.30;93.00
9403;DHT22;4741;49.834;10.740;2023-05-07T14:49:58;26.40;96.00
9403;DHT22;4741;49.834;10.740;2023-05-07T14:52:27;26.80;96.60
9403;DHT22;4741;49.834;10.740;2023-05-07T14:57:21;25.50;96.10
9403;DHT22;4741;49.834;10.740;2023-05-07T14:59:48;25.80;98.40
9403;DHT22;4741;49.834;10.740;2023-05-07T15:02:14;25.30;98.10
9403;DHT22;4741;49.834;10.740;2023-05-07T15:04:41;24.90;98.80
9403;DHT22;4741;49.834;10.740;2023-05-07T15:07:12;25.00;99.00
9403;DHT22;4741;49.834;10.740;2023-05-07T15:09:42;26.00;99.80
9403;DHT22;4741;49.834;10.740;2023-05-07T15:12:08;24.00;99.40
9403;DHT22;4741;49.834;10.740;2023-05-07T15:14:35;25.60;99.50
9403;DHT22;4741;49.834;10.740;2023-05-07T15:17:02;25.70;99.70
9403;DHT22;4741;49.834;10.740;2023-05-07T15:19:28;25.40;99.60
9403;DHT22;4741;49.834;10.740;2023-05-07T15:21:59;25.70;99.90
9403;DHT22;4741;49.834;10.740;2023-05-07T15:24:29;25.90;99.90
9403;DHT22;4741;49.834;10.740;2023-05-07T15:26:55;25.70;99.90
9403;DHT22;4741;49.834;10.740;2023-05-07T15:29:22;25.90;99.50
9403;DHT22;4741;49.834;10.740;2023-05-07T15:31:49;24.60;98.60
9403;DHT22;4741;49.834;10.740;2023-05-07T15:34:16;24.60;99.70
9403;DHT22;4741;49.834;10.740;2023-05-07T15:36:43;25.30;99.90
9403;DHT22;4741;49.834;10.740;2023-05-07T15:39:09;24.90;99.00
9403;DHT22;4741;49.834;10.740;2023-05-07T15:41:37;25.00;99.20
9403;DHT22;4741;49.834;10.740;2023-05-07T15:44:03;24.80;99.90
9403;DHT22;4741;49.834;10.740;2023-05-07T15:46:30;24.00;99.90
9403;DHT22;4741;49.834;10.740;2023-05-07T15:51:24;23.60;99.90
9403;DHT22;4741;49.834;10.740;2023-05-07T15:56:18;23.10;99.90
9403;DHT22;4741;49.834;10.740;2023-05-07T15:58:45;22.70;99.90
9403;DHT22;4741;49.834;10.740;2023-05-07T16:01:12;23.60;99.90
9403;DHT22;4741;49.834;10.740;2023-05-07T16:03:41;22.60;99.90
9403;DHT22;4741;49.834;10.740;2023-05-07T16:06:08;21.70;99.90
9403;DHT22;4741;49.834;10.740;2023-05-07T16:08:37;23.20;99.90
9403;DHT22;4741;49.834;10.740;2023-05-07T16:11:05;22.50;99.90
9403;DHT22;4741;49.834;10.740;2023-05-07T16:15:59;22.20;99.90
9403;DHT22;4741;49.834;10.740;2023-05-07T16:18:26;22.70;99.90
9403;DHT22;4741;49.834;10.740;2023-05-07T16:20:52;22.20;99.90
9403;DHT22;4741;49.834;10.740;2023-05-07T16:23:20;23.00;99.90
9403;DHT22;4741;49.834;10.740;2023-05-07T16:25:47;22.50;99.90
9403;DHT22;4741;49.834;10.740;2023-05-07T16:28:14;21.40;99.90
9403;DHT22;4741;49.834;10.740;2023-05-07T16:30:41;21.90;99.90
9403;DHT22;4741;49.834;10.740;2023-05-07T16:33:08;22.80;99.90
9403;DHT22;4741;49.834;10.740;2023-05-07T16:57:45;21.20;99.90
9403;DHT22;4741;49.834;10.740;2023-05-07T17:02:38;21.10;99.90
9403;DHT22;4741;49.834;10.740;2023-05-07T17:10:00;20.90;99.90
9403;DHT22;4741;49.834;10.740;2023-05-07T17:17:21;20.60;99.90
9403;DHT22;4741;49.834;10.740;2023-05-07T17:22:15;20.60;99.90
9403;DHT22;4741;49.834;10.740;2023-05-07T17:24:42;21.20;99.90
9403;DHT22;4741;49.834;10.740;2023-05-07T17:27:08;21.60;99.90
9403;DHT22;4741;49.834;10.740;2023-05-07T17:29:35;22.10;99.90
9403;DHT22;4741;49.834;10.740;2023-05-07T17:32:01;21.10;99.90
9403;DHT22;4741;49.834;10.740;2023-05-07T17:34:29;20.10;99.90
9403;DHT22;4741;49.834;10.740;2023-05-07T17:36:57;21.50;99.90
9403;DHT22;4741;49.834;10.740;2023-05-07T17:39:24;21.80;99.90
9403;DHT22;4741;49.834;10.740;2023-05-07T17:41:51;19.90;99.90
9403;DHT22;4741;49.834;10.740;2023-05-07T17:44:17;19.70;99.90
9403;DHT22;4741;49.834;10.740;2023-05-07T17:46:44;19.30;99.90
9403;DHT22;4741;49.834;10.740;2023-05-07T17:49:10;19.80;99.90
9403;DHT22;4741;49.834;10.740;2023-05-07T17:51:37;19.50;99.90
9403;DHT22;4741;49.834;10.740;2023-05-07T17:54:19;20.30;99.90
9403;DHT22;4741;49.834;10.740;2023-05-07T17:56:47;18.60;99.90
9403;DHT22;4741;49.834;10.740;2023-05-07T18:01:40;19.30;99.90
9403;DHT22;4741;49.834;10.740;2023-05-07T18:04:07;18.50;99.90
9403;DHT22;4741;49.834;10.740;2023-05-07T18:06:34;20.80;99.90
9403;DHT22;4741;49.834;10.740;2023-05-07T18:09:01;19.10;99.90
9403;DHT22;4741;49.834;10.740;2023-05-07T18:11:28;19.50;99.90
9403;DHT22;4741;49.834;10.740;2023-05-07T18:13:59;18.40;99.90
9403;DHT22;4741;49.834;10.740;2023-05-07T18:16:26;19.10;99.90
9403;DHT22;4741;49.834;10.740;2023-05-07T18:18:53;20.10;99.90
9403;DHT22;4741;49.834;10.740;2023-05-07T18:21:19;20.30;99.90
9403;DHT22;4741;49.834;10.740;2023-05-07T18:23:46;19.70;99.90
9403;DHT22;4741;49.834;10.740;2023-05-07T18:26:13;18.80;99.90
9403;DHT22;4741;49.834;10.740;2023-05-07T18:28:40;18.30;99.90
9403;DHT22;4741;49.834;10.740;2023-05-07T18:31:07;19.60;99.90
9403;DHT22;4741;49.834;10.740;2023-05-07T18:33:33;20.20;99.90
9403;DHT22;4741;49.834;10.740;2023-05-07T18:36:00;18.20;99.90
9403;DHT22;4741;49.834;10.740;2023-05-07T18:38:27;18.60;99.90
9403;DHT22;4741;49.834;10.740;2023-05-07T18:41:04;20.40;99.90
9403;DHT22;4741;49.834;10.740;2023-05-07T18:43:31;18.40;99.90
9403;DHT22;4741;49.834;10.740;2023-05-07T18:45:59;18.40;99.90
9403;DHT22;4741;49.834;10.740;2023-05-07T18:48:27;20.00;99.90
9403;DHT22;4741;49.834;10.740;2023-05-07T18:56:53;18.10;99.90
9403;DHT22;4741;49.834;10.740;2023-05-07T18:59:25;18.20;99.90
9403;DHT22;4741;49.834;10.740;2023-05-07T19:02:54;18.10;99.90
9403;DHT22;4741;49.834;10.740;2023-05-07T19:06:14;18.10;99.90